DWC Championships Stage 2 MTB TT- Results

2012 Durango Wheel Club Championships

______________________________
2012 DWCC Stage 2 MTB TT September 11, 2012
Cloudy, Calm, Light Breeze
Temp.: 70° / 70° F.
Humidity: 44%
Wind: W 14mph
Barometer: 29.94 in. (1013.8 mb.)

Course Length = 5 miles

**= DWC course record. Congratulations Christopher!

U40 Pts. Name Time + Avg.
1 25 Christopher Blevins 00:23:12.26** +00:00 12.93 mph
2 21 Casey Roberts 00:24:33.54 +01:21 12.22 mph
3 18 Graham Stahnke 00:25:11.91 +02:00 11.91 mph
4 16 Doug Herington 00:25:12.57 +02:00 11.90 mph
5 15 Beau Savage 00:25:40.73 +02:28 11.68 mph
6 14 Andy Farley 00:26:12.81 +03:01 11.44 mph
7 13 Virgil Chavez 00:26:20.59 +03:08 11.39 mph
8 12 Steven Morozowich 00:26:41.82 +03:30 11.24 mph
9 11 Fabio Wen 00:26:44.19 +03:32 11.22 mph
10 10 Bob Kyper 00:28:00.21 +04:48 10.71 mph
11 9 Coleman Eich 00:30:47.70 +07:35 09.74 mph
40-49 Pts. Name Time + Avg.
1 25 Jason Quenzler 00:24:09.34 +00:00 12.42 mph
2 21 Gaige Sippy 00:24:27.03 +00:18 12.27 mph
3 18 Jon Delacey 00:25:09.79 +01:00 11.92 mph
4 16 André Paul Michaud 00:25:58.44 +01:49 11.55 mph
5 15 Mitch Carrier 00:26:33.41 +02:24 11.30 mph
6 14 Dave Hagen 00:26:35.76 +02:26 11.28 mph
7 13 Rob Bergstrom 00:26:56.27 +02:47 11.14 mph
8 12 Tino Sonora 00:27:02.57 +02:53 11.09 mph
9 11 Adam Fries 00:27:09.84 +03:01 11.04 mph
10 10 Matt Ozvat 00:27:40.52 +03:31 10.84 mph
11 9 Todd Beattie 00:27:59.02 +03:50 10.72 mph
12 8 Eric Burris 00:29:10.40 +05:01 10.28 mph
13 7 Scott Dahlberg 00:29:37.71 +05:28 10.13 mph
14 6 Jack McManus 00:30:34.18 +06:25 09.81 mph
15 5 Joel Richards 00:33:12.96 +09:04 09.03 mph
50+ Pts. Name Time + Avg.
1 25 Ivan Unkovskoy 00:23:58.43 +00:00 12.51 mph
2 21 Dave Kinsey 00:25:23.29 +01:25 11.82 mph
3 18 Mark Rosenthal 00:25:28.93 +01:30 11.77 mph
4 16 Dale Kneller 00:26:34.91 +02:36 11.29 mph
5 15 John Seibert 00:27:17.27 +03:19 10.99 mph
6 14 Walt Brown 00:27:44.35 +03:46 10.82 mph
7 13 Steve Ilg 00:29:03.00 +05:05 10.33 mph
8 12 John Perry 00:29:31.13 +05:33 10.16 mph
9 11 Doug Eagle 00:30:02.27 +06:04 09.99 mph
10 10 Hal McLean 00:31:57.38 +07:59 09.39 mph
W Pts. Name Time + Avg.
1 25 Dana Shinn 00:27:30.92 +00:00 10.90 mph
2 21 Rebecca Balboni 00:27:39.44 +00:09 10.85 mph
3 18 Krista Park 00:27:41.18 +00:10 10.84 mph
4 16 Robin Tiles-Fitzpatrick 00:29:53.07 +02:22 10.04 mph
5 15 Maria Santiago 00:32:36.93 +05:06 09.20 mph
6 14 Betsy Richards 00:32:58.48 +05:28 09.10 mph
7 13 Melanie Russek-Allen 00:33:23.70 +05:53 08.98 mph
8 12 Barbara Dahl 00:36:15.05 +08:44 08.28 mph
9 11 Ellen Tomsic 00:39:13.87 +11:43 07.65 mph